Πλησιέστερες Αναφορές METAR

 

LGTS - Thessaloniki/Makedonia-Elev 7m
Απόσταση από σταθμό: Ν 13km
Ενημερώθηκε: 16/02/2019 03:20
Διάσπαρτα Νέφη
Διάσπαρτα Νέφη
 Ανεμοι από ΒΔ
Ανεμος: ΒΔ 11 km/h
Θερμοκρασία: 6°C
Δείκτης Ψύχρας: 4°C
Σημείο Δρόσου: 0°C
Υγρασία: 66%
Βαρόμετρο: 1027 hPa
Νέφωση: Διάσπαρτα Νέφη
Ορατότητα: 10 km
Λεπτομέρειες Νεφών: Διάσπαρτα Νέφη 762 m
2019/02/16 01:20 LGTS 160120Z 32006KT 9999 FEW025 06/00 Q1027 NOSIG
LGAV - Athens/Elef. Venizelos-Elev 94m
Απόσταση από σταθμό: ΝΝΑ 312km
Ενημερώθηκε: 16/02/2019 03:20
Σχεδόν νεφελώδης
Σχεδόν νεφελώδης
 Ανεμοι από Β
Ανεμος: Β 39 km/h
Θερμοκρασία: 6°C
Δείκτης Ψύχρας: 1°C
Σημείο Δρόσου: 2°C
Υγρασία: 76%
Βαρόμετρο: 1021 hPa
Νέφωση: Σχεδόν νεφελώδης
Ορατότητα: 10 km
Λεπτομέρειες Νεφών: Διάσπαρτα Νέφη 366 m
Μερικώς νεφελώδης 762 m
Σχεδόν νεφελώδης 2134 m
2019/02/16 01:20 LGAV 160120Z 01021KT 9999 FEW012 SCT025 BKN070 06/02 Q1021 NOSIG
 
LGAL - Alexandroupolis-Elev 3m
Απόσταση από σταθμό: Α 251km
Ενημερώθηκε: 15/02/2019 21:20
ΜΗ Ενημερωμένο METAR!
Μερικώς νεφελώδης
Μερικώς νεφελώδης
 Ανεμοι από ΒΒΑ
Ανεμος: ΒΒΑ 31 km/h, Ριπή: 50 km/h
Θερμοκρασία: 4°C
Δείκτης Ψύχρας: -2°C
Σημείο Δρόσου: -2°C
Υγρασία: 65%
Βαρόμετρο: 1026 hPa
Νέφωση: Μερικώς νεφελώδης
Ορατότητα: 10 km
Λεπτομέρειες Νεφών: Μερικώς νεφελώδης 914 m
2019/02/15 19:20 LGAL 151920Z 03017G27KT 9999 SCT030 04/M02 Q1026
LGKV - Kavala/Crysoupolis-Elev 5m
Απόσταση από σταθμό: ΑΒΑ 144km
Ενημερώθηκε: 16/02/2019 02:50
Σχεδόν νεφελώδης
Σχεδόν νεφελώδης
 Ανεμοι από ΑΒΑ
Ανεμος: ΑΒΑ 13 km/h
Θερμοκρασία: 6°C
Δείκτης Ψύχρας: 3°C
Σημείο Δρόσου: 0°C
Υγρασία: 66%
Βαρόμετρο: 1027 hPa
Νέφωση: Σχεδόν νεφελώδης
Ορατότητα: 10 km
Λεπτομέρειες Νεφών: Διάσπαρτα Νέφη 762 m
Σχεδόν νεφελώδης 2438 m
2019/02/16 00:50 LGKV 160050Z 07007KT 9999 FEW025 BKN080 06/00 Q1027
 
LGSK - Skiathos Island-Elev 15m
Απόσταση από σταθμό: ΝΝΑ 168km
Ενημερώθηκε: 15/02/2019 19:50
ΜΗ Ενημερωμένο METAR!
Σχεδόν νεφελώδης
Σχεδόν νεφελώδης
 Ανεμοι από ΒΒΑ
Ανεμος: ΒΒΑ 35 km/h, Ριπή: 54 km/h
Θερμοκρασία: 8°C
Δείκτης Ψύχρας: 3°C
Σημείο Δρόσου: 3°C
Υγρασία: 71%
Βαρόμετρο: 1023 hPa
Νέφωση: Σχεδόν νεφελώδης
Ορατότητα: 8 km
Λεπτομέρειες Νεφών: Μερικώς νεφελώδης 305 m
Σχεδόν νεφελώδης 762 m
2019/02/15 17:50 LGSK 151750Z 03019G29KT 8000 SCT010 BKN025 08/03 Q1023
LGLM - Limnos Island-Elev 5m
Απόσταση από σταθμό: ΑΝΑ 210km
Ενημερώθηκε: 16/02/2019 02:50
Σχεδόν νεφελώδης
Σχεδόν νεφελώδης
 Ανεμοι από ΒΑ
Ανεμος: ΒΑ 46 km/h, Ριπή: 70 km/h
Θερμοκρασία: 6°C
Δείκτης Ψύχρας: 1°C
Σημείο Δρόσου: -1°C
Υγρασία: 61%
Βαρόμετρο: 1024 hPa
Νέφωση: Σχεδόν νεφελώδης
Ορατότητα: 10 km
Λεπτομέρειες Νεφών: Μερικώς νεφελώδης 366 m
Σχεδόν νεφελώδης 610 m
2019/02/16 00:50 LGLM 160050Z 04025G38KT 9999 SCT012 BKN020 06/M01 Q1024
 
LGMT - Mitilini Island-Elev 17m
Απόσταση από σταθμό: ΑΝΑ 358km
Ενημερώθηκε: 15/02/2019 22:20
ΜΗ Ενημερωμένο METAR!
Μερικώς νεφελώδης
Μερικώς νεφελώδης
 Ανεμοι από ΒΒΑ
Ανεμος: ΒΒΑ 22 km/h, Ριπή: 41 km/h
Θερμοκρασία: 9°C
Δείκτης Ψύχρας: 6°C
Σημείο Δρόσου: 3°C
Υγρασία: 66%
Βαρόμετρο: 1020 hPa
Νέφωση: Μερικώς νεφελώδης
Ορατότητα: 10 km
Λεπτομέρειες Νεφών: Μερικώς νεφελώδης 762 m
2019/02/15 20:20 LGMT 152020Z 02012G22KT 340V060 9999 SCT025 09/03 Q1020
LGSY - Skiros Island-Elev 15m
Απόσταση από σταθμό: ΝΑ 227km
Ενημερώθηκε: 16/02/2019 01:50
ΜΗ Ενημερωμένο METAR!
Σχεδόν νεφελώδης
Σχεδόν νεφελώδης
 Ανεμοι από ΒΒΑ
Ανεμος: ΒΒΑ 48 km/h, Ριπή: 70 km/h
Θερμοκρασία: 8°C
Δείκτης Ψύχρας: 3°C
Σημείο Δρόσου: 2°C
Υγρασία: 66%
Βαρόμετρο: 1023 hPa
Νέφωση: Σχεδόν νεφελώδης
Ορατότητα: 10 km
Λεπτομέρειες Νεφών: Μερικώς νεφελώδης 335 m
Σχεδόν νεφελώδης 610 m
2019/02/15 23:50 LGSY 152350Z 02026G38KT 9999 SCT011 BKN020 08/02 Q1023 RMK OVC080 BLU
 
LGKZ - Kozani-Elev 628m
Απόσταση από σταθμό: ΔΝΔ 102km
Ενημερώθηκε: 15/02/2019 13:50
ΜΗ Ενημερωμένο METAR!
Μερικώς νεφελώδης
Μερικώς νεφελώδης
 Ανεμοι από ΒΑ
Ανεμος: ΒΑ 30 km/h
Θερμοκρασία: 6°C
Δείκτης Ψύχρας: 2°C
Σημείο Δρόσου: -9°C
Υγρασία: 34%
Βαρόμετρο: 1022 hPa
Νέφωση: Μερικώς νεφελώδης
Ορατότητα: 10 km
Λεπτομέρειες Νεφών: Μερικώς νεφελώδης 762 m
Μερικώς νεφελώδης 2134 m
2019/02/15 11:50 LGKZ 151150Z 04016KT 9999 SCT025 SCT070 06/M09 Q1022
LGIO - Ioannina-Elev 476m
Απόσταση από σταθμό: ΔΝΔ 209km
Ενημερώθηκε: 15/02/2019 21:20
ΜΗ Ενημερωμένο METAR!
Μερικώς νεφελώδης
Μερικώς νεφελώδης
 Ανεμοι από μεταβλητός
Ανεμος: μεταβλητός 0 km/h
Θερμοκρασία: 5°C
Σημείο Δρόσου: -4°C
Υγρασία: 53%
Βαρόμετρο: 1022 hPa
Νέφωση: Μερικώς νεφελώδης
Ορατότητα: 10 km
Λεπτομέρειες Νεφών: Μερικώς νεφελώδης 914 m
Μερικώς νεφελώδης 1829 m
2019/02/15 19:20 LGIO 151920Z /////KT 9999 SCT030 SCT060 05/M04 Q1022
 
LGZA - Zakinthos-Elev 3m
Απόσταση από σταθμό: ΝΝΔ 367km
Ενημερώθηκε: 15/02/2019 19:50
ΜΗ Ενημερωμένο METAR!
Μερικώς νεφελώδης
Μερικώς νεφελώδης
 Ανεμοι από ΒΑ
Ανεμος: ΒΑ 15 km/h
Θερμοκρασία: 11°C
Σημείο Δρόσου: 0°C
Υγρασία: 47%
Βαρόμετρο: 1021 hPa
Νέφωση: Μερικώς νεφελώδης
Ορατότητα: 10 km
Λεπτομέρειες Νεφών: Διάσπαρτα Νέφη 549 m
Μερικώς νεφελώδης 610 m
2019/02/15 17:50 LGZA 151750Z 04008KT 9999 FEW018 SCT020 11/00 Q1021
LGKR - Corfu Island-Elev 2m
Απόσταση από σταθμό: ΔΝΔ 282km
Ενημερώθηκε: 16/02/2019 03:20
Αίθριος
Αίθριος
 Ανεμοι από Α
Ανεμος: Α 7 km/h
Θερμοκρασία: 8°C
Δείκτης Ψύχρας: 7°C
Σημείο Δρόσου: -3°C
Υγρασία: 46%
Βαρόμετρο: 1025 hPa
Περίληψη: Αίθριος
Ορατότητα: πάνω από 10 km
2019/02/16 01:20 LGKR 160120Z 08004KT CAVOK 08/M03 Q1025 NOSIG
 
LGSO - Syros Island-Elev 72m
Απόσταση από σταθμό: ΝΝΑ 397km
Ενημερώθηκε: 15/02/2019 20:50
ΜΗ Ενημερωμένο METAR!
Ασθενής βροχή, Σχεδόν νεφελώδης
Ασθενής βροχή, Σχεδόν νεφελώδης
 Ανεμοι από Β
Ανεμος: Β 39 km/h, Ριπή: 57 km/h
Θερμοκρασία: 9°C
Δείκτης Ψύχρας: 4°C
Σημείο Δρόσου: 4°C
Υγρασία: 71%
Βαρόμετρο: 1017 hPa
Περίληψη: Ασθενής βροχή
Νέφωση: Σχεδόν νεφελώδης
Ορατότητα: 10 km
Λεπτομέρειες Νεφών: Μερικώς νεφελώδης 549 m
Σχεδόν νεφελώδης 762 m
2019/02/15 18:50 LGSO 151850Z 01021G31KT 9999 -RA SCT018 BKN025 09/04 Q1017
LGMK - Mikonos Island-Elev 123m
Απόσταση από σταθμό: ΝΝΑ 412km
Ενημερώθηκε: 15/02/2019 19:50
ΜΗ Ενημερωμένο METAR!
Σχεδόν νεφελώδης
Σχεδόν νεφελώδης
 Ανεμοι από Β
Ανεμος: Β 28 km/h
Θερμοκρασία: 8°C
Δείκτης Ψύχρας: 4°C
Σημείο Δρόσου: 3°C
Υγρασία: 71%
Βαρόμετρο: 1015 hPa
Νέφωση: Σχεδόν νεφελώδης
Ορατότητα: 10 km
Λεπτομέρειες Νεφών: Μερικώς νεφελώδης 549 m
Σχεδόν νεφελώδης 762 m
2019/02/15 17:50 LGMK 151750Z 36015KT 9999 SCT018 BKN025 08/03 Q1015
 
LGSR - Santorini Island-Elev 40m
Απόσταση από σταθμό: ΝΝΑ 520km
Ενημερώθηκε: 16/02/2019 03:20
Ασθενής βροχή
Ασθενής βροχή
 Ανεμοι από Β
Ανεμος: Β 37 km/h
Θερμοκρασία: 11°C
Σημείο Δρόσου: 5°C
Υγρασία: 67%
Βαρόμετρο: 1015 hPa
Περίληψη: Ασθενής βροχή
2019/02/16 01:20 LGSR 160120Z AUTO 36020KT //// -RA ////// 11/05 Q1015 RE//
LGKL - Kalamata-Elev 8m
Απόσταση από σταθμό: Ν 405km
Ενημερώθηκε: 16/02/2019 03:20

 Ανεμοι από ΒΒΑ
Ανεμος: ΒΒΑ 9 km/h
Θερμοκρασία: 7°C
Δείκτης Ψύχρας: 6°C
Σημείο Δρόσου: -3°C
Υγρασία: 49%
Βαρόμετρο: 1021 hPa
2019/02/16 01:20 LGKL 160120Z AUTO 02005KT 280V100 //// // ////// 07/M03 Q1021 RE//
 
LGIR - Iraklion/Crete-Elev 5m
Απόσταση από σταθμό: ΝΝΑ 622km
Ενημερώθηκε: 16/02/2019 03:20
Σχεδόν νεφελώδης
Σχεδόν νεφελώδης
 Ανεμοι από ΒΔ
Ανεμος: ΒΔ 19 km/h
Θερμοκρασία: 8°C
Δείκτης Ψύχρας: 4°C
Σημείο Δρόσου: 6°C
Υγρασία: 87%
Βαρόμετρο: 1016 hPa
Νέφωση: Σχεδόν νεφελώδης
Ορατότητα: 10 km
Λεπτομέρειες Νεφών: Διάσπαρτα Νέφη 488 m
Σχεδόν νεφελώδης 610 m
2019/02/16 01:20 LGIR 160120Z 31010KT 9999 FEW016TCU BKN020 08/06 Q1016 RERA NOSIG
LGRP - Rhodes-Elev 5m
Απόσταση από σταθμό: ΝΑ 649km
Ενημερώθηκε: 16/02/2019 03:20
Μερικώς νεφελώδης
Μερικώς νεφελώδης
 Ανεμοι από μεταβλητός
Ανεμος: μεταβλητός 6 km/h
Θερμοκρασία: 10°C
Σημείο Δρόσου: 7°C
Υγρασία: 82%
Βαρόμετρο: 1013 hPa
Νέφωση: Μερικώς νεφελώδης
Ορατότητα: 10 km
Λεπτομέρειες Νεφών: Μερικώς νεφελώδης 762 m
2019/02/16 01:20 LGRP 160120Z VRB03KT 9999 SCT025 10/07 Q1013 NOSIG
 
LWOH - Ohrid/FYROM-Elev 761m
Απόσταση από σταθμό: ΔΒΔ 188km
Ενημερώθηκε: 15/02/2019 22:00
ΜΗ Ενημερωμένο METAR!
Σχεδόν νεφελώδης
Σχεδόν νεφελώδης
 Ανεμοι από Β
Ανεμος: Β 15 km/h
Θερμοκρασία: 2°C
Δείκτης Ψύχρας: -2°C
Σημείο Δρόσου: -7°C
Υγρασία: 52%
Βαρόμετρο: 1026 hPa
Νέφωση: Σχεδόν νεφελώδης
Ορατότητα: 10 km
Λεπτομέρειες Νεφών: Διάσπαρτα Νέφη 610 m
Μερικώς νεφελώδης 914 m
Σχεδόν νεφελώδης 1524 m
2019/02/15 20:00 LWOH 152000Z 01008KT 9999 FEW020 SCT030 BKN050 02/M07 Q1026
LBSF - Sofia/Bulgaria-Elev 595m
Απόσταση από σταθμό: Β 227km
Ενημερώθηκε: 16/02/2019 03:30
Συννεφιά
Συννεφιά
 Ανεμοι από Δ
Ανεμος: Δ 7 km/h
Θερμοκρασία: 0°C
Δείκτης Ψύχρας: -3°C
Σημείο Δρόσου: -3°C
Υγρασία: 80%
Βαρόμετρο: 1029 hPa
Νέφωση: Συννεφιά
Ορατότητα: 10 km
Λεπτομέρειες Νεφών: Συννεφιά 1433 m
2019/02/16 01:30 LBSF 160130Z 27004KT 9999 OVC047 00/M03 Q1029 NOSIG